Kailua, HI

6:43 AM HST on March 24, 2017 (GMT -1000)
Kailua Estates | | Change Station

Elev 7 ft 21.40 °N, 157.73 °W | Updated 37 seconds ago

Rain
Rain
71.4 °F
Feels Like 71.4 °F
N
1.7
Wind Variable Wind from SSW

Today
High -- | Low -- °F
--% Chance of Precip.
Yesterday
High -- | Low -- °F
Precip. -- in
Pressure 30.09 in
Visibility 5.0 miles
Clouds Scattered Clouds 1000 ft
Mostly Cloudy 1800 ft
Dew Point 71 °F
Humidity 99%
Rainfall 0.18 in
Snow Depth Not available.
6:30 AM 6:43 PM
Waning Crescent, 14% visible
METAR PHNG 241557Z 00000KT 5SM -RA SCT010 BKN018 23/23 A3010 RMK RAB11 SLP188 P0029 T02330228
Pressure 30.09 in
Visibility 5.0 miles
Clouds Scattered Clouds 1000 ft
Mostly Cloudy 1800 ft
Dew Point 71 °F
Humidity 99%
Rainfall 0.18 in
Snow Depth Not available.
6:30 AM 6:43 PM
Waning Crescent, 14% visible
METAR PHNG 241557Z 00000KT 5SM -RA SCT010 BKN018 23/23 A3010 RMK RAB11 SLP188 P0029 T02330228

Get Severe Weather Alerts

Thanks for signing up!

Be on the lookout for a verification email in your inbox.

You'll start receiving the daily forecast at 8 AM.

×

10-Day Weather Forecast

Almanac

Astronomy

Mar. 24, 2017 Rise Set
Actual Time
Civil Twilight
Nautical Twilight
Astronomical Twilight
Moon
Length of Visible Light
Length of Day
Tomorrow will be .
, % of the Moon is Illuminated

Today's Extremes

State Highs State Lows

Community

WunderPhotos

Upload Photos

1,962,540 photos uploaded!

WunderBlog® & News

Nearby

Air Quality

  Air Quality AQ Index Pollutant
Not available.

Snow Depth

Station Depth Elevation

Earthquake Activity

City Distance Mag. Time & Date
Minimum magnitude displayed is 2.5.

Earthquake Activity

City Distance Mag. Time & Date
Minimum magnitude displayed is 2.5.

Coastal Water Temperatures

Place Temperature

Stations

Nearby Weather Stations

Station Location Temp. Windchill Dew Point Humidity Wind Precip. Elev Updated Type
                   

Watches & Warnings

There are currently no watches in effect.